createdAt,value
2024-04-10T00:00:32.586Z,0
2024-04-10T00:02:06.845Z,0
2024-04-10T00:03:11.615Z,0
2024-04-10T00:04:13.196Z,0
2024-04-10T00:05:16.348Z,0
2024-04-10T00:06:18.712Z,0
2024-04-10T00:07:20.872Z,0
2024-04-10T00:08:23.448Z,0
2024-04-10T00:09:24.771Z,0
2024-04-10T00:10:27.542Z,0
2024-04-10T00:11:31.130Z,0
2024-04-10T00:12:33.438Z,0
2024-04-10T00:14:06.664Z,0
2024-04-10T00:15:09.011Z,0
2024-04-10T00:16:13.108Z,0
2024-04-10T00:17:15.637Z,0
2024-04-10T00:18:18.187Z,0
2024-04-10T00:19:20.596Z,0
2024-04-10T00:20:22.912Z,0
2024-04-10T00:21:24.511Z,0
2024-04-10T00:22:26.815Z,0
2024-04-10T00:23:29.240Z,0
2024-04-10T00:24:31.488Z,0
2024-04-10T00:25:33.948Z,0
2024-04-10T00:27:07.794Z,0
2024-04-10T00:28:09.198Z,0
2024-04-10T00:29:11.390Z,0
2024-04-10T00:30:13.826Z,0
2024-04-10T00:31:16.186Z,0
2024-04-10T00:32:18.711Z,0
2024-04-10T00:33:21.755Z,0
2024-04-10T00:34:23.674Z,0
2024-04-10T00:35:25.279Z,0
2024-04-10T00:36:27.652Z,0
2024-04-10T00:37:29.929Z,0
2024-04-10T00:38:32.340Z,0
2024-04-10T00:40:05.514Z,0
2024-04-10T00:41:07.654Z,0
2024-04-10T00:42:09.815Z,0
2024-04-10T00:43:12.345Z,0
2024-04-10T00:44:14.894Z,0
2024-04-10T00:45:17.430Z,0
2024-04-10T00:46:20.211Z,0
2024-04-10T00:47:21.961Z,0
2024-04-10T00:48:23.398Z,0
2024-04-10T00:49:25.083Z,0
2024-04-10T00:50:27.683Z,0
2024-04-10T00:51:30.082Z,0
2024-04-10T00:52:32.580Z,0
2024-04-10T00:54:06.393Z,0
2024-04-10T00:55:08.384Z,0
2024-04-10T00:56:11.409Z,0
2024-04-10T00:57:14.155Z,0
2024-04-10T00:58:16.125Z,0
2024-04-10T00:59:19.013Z,0
2024-04-10T01:00:21.086Z,0
2024-04-10T01:01:24.220Z,0
2024-04-10T01:02:25.489Z,0
2024-04-10T01:03:27.400Z,0
2024-04-10T01:04:30.676Z,0
2024-04-10T01:05:33.579Z,0
2024-04-10T01:07:07.140Z,0
2024-04-10T01:08:09.231Z,0
2024-04-10T01:09:11.145Z,0
2024-04-10T01:10:14.206Z,0
2024-04-10T01:11:15.638Z,0
2024-04-10T01:12:18.094Z,0
2024-04-10T01:13:21.135Z,0
2024-04-10T01:14:23.239Z,0
2024-04-10T01:15:25.281Z,0
2024-04-10T01:16:27.350Z,0
2024-04-10T01:17:29.422Z,0
2024-04-10T01:18:31.525Z,0
2024-04-10T01:20:05.707Z,0
2024-04-10T01:21:08.217Z,0
2024-04-10T01:22:10.194Z,0
2024-04-10T01:23:12.188Z,0
2024-04-10T01:24:14.112Z,0
2024-04-10T01:25:16.661Z,0
2024-04-10T01:26:18.866Z,0
2024-04-10T01:27:20.666Z,0
2024-04-10T01:28:22.593Z,0
2024-04-10T01:29:24.850Z,0
2024-04-10T01:30:27.557Z,0
2024-04-10T01:31:31.286Z,0
2024-04-10T01:33:05.264Z,0
2024-04-10T01:34:07.380Z,0
2024-04-10T01:35:09.632Z,0
2024-04-10T01:36:11.674Z,0
2024-04-10T01:37:13.782Z,0
2024-04-10T01:38:15.865Z,0
2024-04-10T01:39:18.268Z,0
2024-04-10T01:40:20.681Z,0
2024-04-10T01:41:23.179Z,0
2024-04-10T01:42:25.615Z,0
2024-04-10T01:43:28.921Z,0
2024-04-10T01:44:30.940Z,0
2024-04-10T01:45:33.530Z,0
2024-04-10T01:47:07.768Z,0
2024-04-10T01:48:09.748Z,0
2024-04-10T01:49:11.362Z,0
2024-04-10T01:50:13.700Z,0
2024-04-10T01:51:16.148Z,0
2024-04-10T01:52:18.357Z,0
2024-04-10T01:53:20.909Z,0
2024-04-10T01:54:22.696Z,0
2024-04-10T01:55:24.785Z,0
2024-04-10T01:56:26.433Z,0
2024-04-10T01:57:28.412Z,0
2024-04-10T01:58:30.537Z,0
2024-04-10T01:59:33.390Z,0
2024-04-10T02:01:06.681Z,0
2024-04-10T02:02:08.777Z,0
2024-04-10T02:03:10.875Z,0
2024-04-10T02:04:13.198Z,0
2024-04-10T02:05:15.523Z,0
2024-04-10T02:06:17.701Z,0
2024-04-10T02:07:19.839Z,0
2024-04-10T02:08:22.415Z,0
2024-04-10T02:09:24.629Z,0
2024-04-10T02:10:27.008Z,0
2024-04-10T02:11:29.075Z,0
2024-04-10T02:12:30.885Z,0
2024-04-10T02:13:33.632Z,0
2024-04-10T02:15:07.698Z,0
2024-04-10T02:16:10.263Z,0
2024-04-10T02:17:13.560Z,0
2024-04-10T02:18:16.491Z,0
2024-04-10T02:19:18.807Z,0
2024-04-10T02:20:22.283Z,0
2024-04-10T02:21:24.641Z,0
2024-04-10T02:22:27.184Z,0
2024-04-10T02:23:29.776Z,0
2024-04-10T02:24:32.365Z,0
2024-04-10T02:26:07.363Z,0
2024-04-10T02:27:08.788Z,0
2024-04-10T02:28:10.947Z,0
2024-04-10T02:29:13.836Z,0
2024-04-10T02:30:16.250Z,0
2024-04-10T02:31:18.548Z,0
2024-04-10T02:32:21.543Z,0
2024-04-10T02:33:24.382Z,0
2024-04-10T02:34:26.137Z,0
2024-04-10T02:35:28.924Z,0
2024-04-10T02:36:31.106Z,0
2024-04-10T02:38:05.475Z,0
2024-04-10T02:39:07.896Z,0
2024-04-10T02:40:10.630Z,0
2024-04-10T02:41:13.779Z,0
2024-04-10T02:42:16.577Z,0
2024-04-10T02:43:18.792Z,0
2024-04-10T02:44:20.340Z,0
2024-04-10T02:45:23.307Z,0
2024-04-10T02:46:25.757Z,0
2024-04-10T02:47:27.828Z,0
2024-04-10T02:48:29.886Z,0
2024-04-10T02:49:33.586Z,0
2024-04-10T02:51:07.329Z,0
2024-04-10T02:52:09.337Z,0
2024-04-10T02:53:12.353Z,0
2024-04-10T02:54:14.157Z,0
2024-04-10T02:55:16.199Z,0
2024-04-10T02:56:18.282Z,0
2024-04-10T02:57:20.557Z,0
2024-04-10T02:58:22.038Z,0
2024-04-10T02:59:24.787Z,0
2024-04-10T03:00:27.239Z,0
2024-04-10T03:01:29.757Z,0
2024-04-10T03:02:32.143Z,0
2024-04-10T03:04:07.078Z,0
2024-04-10T03:05:09.699Z,0
2024-04-10T03:06:11.708Z,0
2024-04-10T03:07:15.010Z,0
2024-04-10T03:08:17.225Z,0
2024-04-10T03:09:20.456Z,0
2024-04-10T03:10:22.656Z,0
2024-04-10T03:11:24.923Z,0
2024-04-10T03:12:26.902Z,0
2024-04-10T03:13:29.914Z,0
2024-04-10T03:14:33.343Z,0
2024-04-10T03:16:06.826Z,0
2024-04-10T03:17:09.368Z,0
2024-04-10T03:18:12.874Z,0
2024-04-10T03:19:14.148Z,0
2024-04-10T03:20:17.176Z,0
2024-04-10T03:21:19.834Z,0
2024-04-10T03:22:21.673Z,0
2024-04-10T03:23:23.780Z,0
2024-04-10T03:24:26.232Z,0
2024-04-10T03:25:29.076Z,0
2024-04-10T03:26:31.296Z,0
2024-04-10T03:28:05.164Z,0
2024-04-10T03:29:07.671Z,0
2024-04-10T03:30:09.696Z,0
2024-04-10T03:31:11.739Z,0
2024-04-10T03:32:13.940Z,0
2024-04-10T03:33:15.830Z,0
2024-04-10T03:34:18.303Z,0
2024-04-10T03:35:19.582Z,0
2024-04-10T03:36:21.703Z,0
2024-04-10T03:37:23.711Z,0
2024-04-10T03:38:25.831Z,0
2024-04-10T03:39:28.074Z,0
2024-04-10T03:40:31.205Z,0
2024-04-10T03:41:34.272Z,0
2024-04-10T03:43:07.704Z,0
2024-04-10T03:44:09.703Z,0
2024-04-10T03:45:11.700Z,0
2024-04-10T03:46:13.766Z,0
2024-04-10T03:47:16.107Z,0
2024-04-10T03:48:18.378Z,0
2024-04-10T03:49:20.227Z,0
2024-04-10T03:50:22.300Z,0
2024-04-10T03:51:24.673Z,0
2024-04-10T03:52:27.201Z,0
2024-04-10T03:53:29.554Z,0
2024-04-10T03:54:31.325Z,0
2024-04-10T03:56:05.278Z,0
2024-04-10T03:57:07.203Z,0
2024-04-10T03:58:09.255Z,0
2024-04-10T03:59:11.210Z,0
2024-04-10T04:00:13.168Z,0
2024-04-10T04:01:15.259Z,0
2024-04-10T04:02:17.328Z,0
2024-04-10T04:03:19.339Z,0
2024-04-10T04:04:21.255Z,0
2024-04-10T04:05:23.204Z,0
2024-04-10T04:06:25.894Z,0
2024-04-10T04:07:27.834Z,0
2024-04-10T04:08:30.126Z,0
2024-04-10T04:09:32.653Z,0
2024-04-10T04:11:05.903Z,0
2024-04-10T04:12:07.908Z,0
2024-04-10T04:13:09.685Z,0
2024-04-10T04:14:11.756Z,0
2024-04-10T04:15:13.867Z,0
2024-04-10T04:16:15.373Z,0
2024-04-10T04:17:17.479Z,0
2024-04-10T04:18:19.486Z,0
2024-04-10T04:19:21.352Z,0
2024-04-10T04:20:23.480Z,0
2024-04-10T04:21:25.820Z,0
2024-04-10T04:22:27.919Z,0
2024-04-10T04:23:30.157Z,0
2024-04-10T04:24:32.783Z,0
2024-04-10T04:26:08.269Z,0
2024-04-10T04:27:10.679Z,0
2024-04-10T04:28:12.709Z,0
2024-04-10T04:29:14.867Z,0
2024-04-10T04:30:17.228Z,0
2024-04-10T04:31:19.281Z,0
2024-04-10T04:32:21.312Z,4
2024-04-10T04:33:23.404Z,4
2024-04-10T04:34:25.359Z,0
2024-04-10T04:35:26.819Z,4
2024-04-10T04:36:29.036Z,4
2024-04-10T04:37:30.857Z,4
2024-04-10T04:38:33.414Z,8
2024-04-10T04:40:07.900Z,8
2024-04-10T04:41:09.835Z,12
2024-04-10T04:42:11.922Z,12
2024-04-10T04:43:14.226Z,16
2024-04-10T04:44:16.248Z,20
2024-04-10T04:45:18.244Z,20
2024-04-10T04:46:20.236Z,24
2024-04-10T04:47:21.749Z,28
2024-04-10T04:48:24.172Z,32
2024-04-10T04:49:26.247Z,36
2024-04-10T04:50:28.516Z,44
2024-04-10T04:51:30.811Z,56
2024-04-10T04:53:04.786Z,60
2024-04-10T04:54:06.791Z,64
2024-04-10T04:55:08.790Z,72
2024-04-10T04:56:10.249Z,80
2024-04-10T04:57:12.742Z,84
2024-04-10T04:58:15.227Z,88
2024-04-10T04:59:17.207Z,96
2024-04-10T05:00:19.814Z,108
2024-04-10T05:01:22.342Z,116
2024-04-10T05:02:24.318Z,120
2024-04-10T05:03:26.140Z,128
2024-04-10T05:04:28.612Z,136
2024-04-10T05:05:31.577Z,148
2024-04-10T05:07:04.965Z,156
2024-04-10T05:08:07.252Z,164
2024-04-10T05:09:09.809Z,172
2024-04-10T05:10:11.960Z,180
2024-04-10T05:11:13.573Z,188
2024-04-10T05:12:15.625Z,200
2024-04-10T05:13:18.663Z,212
2024-04-10T05:14:21.165Z,224
2024-04-10T05:15:23.522Z,232
2024-04-10T05:16:26.307Z,240
2024-04-10T05:17:29.211Z,248
2024-04-10T05:18:31.563Z,260
2024-04-10T05:20:05.365Z,268
2024-04-10T05:21:07.795Z,280
2024-04-10T05:22:10.392Z,292
2024-04-10T05:23:12.849Z,300
2024-04-10T05:24:14.514Z,316
2024-04-10T05:25:16.831Z,332
2024-04-10T05:26:19.128Z,348
2024-04-10T05:27:22.238Z,368
2024-04-10T05:28:24.709Z,388
2024-04-10T05:29:26.741Z,392
2024-04-10T05:30:29.155Z,384
2024-04-10T05:31:31.403Z,356
2024-04-10T05:33:04.851Z,356
2024-04-10T05:34:07.272Z,364
2024-04-10T05:35:09.261Z,384
2024-04-10T05:36:11.333Z,400
2024-04-10T05:37:14.248Z,392
2024-04-10T05:38:16.344Z,380
2024-04-10T05:39:18.879Z,384
2024-04-10T05:40:21.243Z,392
2024-04-10T05:41:24.248Z,412
2024-04-10T05:42:25.859Z,420
2024-04-10T05:43:28.062Z,436
2024-04-10T05:44:30.329Z,472
2024-04-10T05:45:32.883Z,456
2024-04-10T05:47:06.326Z,444
2024-04-10T05:48:09.368Z,448
2024-04-10T05:49:11.516Z,452
2024-04-10T05:50:13.798Z,456
2024-04-10T05:51:16.293Z,460
2024-04-10T05:52:18.250Z,472
2024-04-10T05:53:20.702Z,476
2024-04-10T05:54:23.690Z,484
2024-04-10T05:55:25.107Z,488
2024-04-10T05:56:27.936Z,492
2024-04-10T05:57:29.702Z,496
2024-04-10T05:58:31.733Z,504
2024-04-10T06:00:05.176Z,520
2024-04-10T06:01:07.357Z,540
2024-04-10T06:02:09.817Z,560
2024-04-10T06:03:12.339Z,600
2024-04-10T06:04:14.698Z,660
2024-04-10T06:05:16.802Z,716
2024-04-10T06:06:18.898Z,768
2024-04-10T06:07:21.430Z,840
2024-04-10T06:08:23.855Z,936
2024-04-10T06:09:26.083Z,1036
2024-04-10T06:10:28.391Z,1108
2024-04-10T06:11:30.753Z,1196
2024-04-10T06:13:05.338Z,1252
2024-04-10T06:14:07.798Z,1328
2024-04-10T06:15:10.225Z,1484
2024-04-10T06:16:12.076Z,1660
2024-04-10T06:17:14.274Z,1792
2024-04-10T06:18:16.818Z,1884
2024-04-10T06:19:19.327Z,1924
2024-04-10T06:20:20.934Z,1964
2024-04-10T06:21:22.949Z,2032
2024-04-10T06:22:24.985Z,2092
2024-04-10T06:23:27.060Z,2140
2024-04-10T06:24:29.837Z,2104
2024-04-10T06:26:04.161Z,2040
2024-04-10T06:27:06.318Z,1956
2024-04-10T06:28:08.810Z,1928
2024-04-10T06:29:11.289Z,1948
2024-04-10T06:30:13.781Z,1932
2024-04-10T06:31:15.695Z,1900
2024-04-10T06:32:18.580Z,1872
2024-04-10T06:33:20.853Z,1728
2024-04-10T06:34:23.370Z,1740
2024-04-10T06:35:25.803Z,1936
2024-04-10T06:36:28.235Z,1868
2024-04-10T06:37:30.343Z,1912
2024-04-10T06:39:03.822Z,2040
2024-04-10T06:40:06.283Z,2280
2024-04-10T06:41:09.581Z,2400
2024-04-10T06:42:11.721Z,2496
2024-04-10T06:43:13.928Z,2528
2024-04-10T06:44:16.452Z,2552
2024-04-10T06:45:18.746Z,2604
2024-04-10T06:46:21.201Z,2612
2024-04-10T06:47:23.397Z,2652
2024-04-10T06:48:27.107Z,2720
2024-04-10T06:49:29.452Z,2876
2024-04-10T06:51:04.307Z,2896
2024-04-10T06:52:05.840Z,2992
2024-04-10T06:53:08.156Z,3096
2024-04-10T06:54:10.577Z,3132
2024-04-10T06:55:13.778Z,3120
2024-04-10T06:56:16.281Z,3064
2024-04-10T06:57:19.146Z,2996
2024-04-10T06:58:21.148Z,2936
2024-04-10T06:59:23.420Z,2852
2024-04-10T07:00:25.771Z,2728
2024-04-10T07:01:28.226Z,2640
2024-04-10T07:02:31.399Z,2360
2024-04-10T07:04:05.280Z,2236
2024-04-10T07:05:07.471Z,2148
2024-04-10T07:06:09.683Z,2080
2024-04-10T07:07:11.726Z,2040
2024-04-10T07:08:14.784Z,2032
2024-04-10T07:09:17.263Z,1884
2024-04-10T07:10:19.232Z,1944
2024-04-10T07:11:21.598Z,1852
2024-04-10T07:12:23.422Z,1872
2024-04-10T07:13:25.674Z,1844
2024-04-10T07:14:27.774Z,1788
2024-04-10T07:15:29.980Z,1740
2024-04-10T07:17:05.277Z,1704
2024-04-10T07:18:07.328Z,1664
2024-04-10T07:19:09.668Z,1672
2024-04-10T07:20:11.812Z,1632
2024-04-10T07:21:14.171Z,1536
2024-04-10T07:22:16.243Z,1652
2024-04-10T07:23:18.784Z,1932
2024-04-10T07:24:20.774Z,1756
2024-04-10T07:25:22.416Z,1456
2024-04-10T07:26:24.881Z,1552
2024-04-10T07:27:27.232Z,1932
2024-04-10T07:28:31.100Z,1964
2024-04-10T07:30:05.314Z,2004
2024-04-10T07:31:07.873Z,1900
2024-04-10T07:32:10.327Z,1832
2024-04-10T07:33:13.123Z,1844
2024-04-10T07:34:16.141Z,1716
2024-04-10T07:35:18.274Z,1616
2024-04-10T07:36:20.257Z,1540
2024-04-10T07:37:22.788Z,1500
2024-04-10T07:38:25.335Z,1528
2024-04-10T07:39:27.772Z,1680
2024-04-10T07:40:30.048Z,1788
2024-04-10T07:42:03.923Z,1912
2024-04-10T07:43:06.192Z,2204
2024-04-10T07:44:08.638Z,1996
2024-04-10T07:45:10.708Z,1748
2024-04-10T07:46:12.867Z,1700
2024-04-10T07:47:15.432Z,1460
2024-04-10T07:48:17.875Z,1696
2024-04-10T07:49:19.890Z,1844
2024-04-10T07:50:21.891Z,1820
2024-04-10T07:51:23.776Z,1384
2024-04-10T07:52:27.779Z,1332
2024-04-10T07:53:31.850Z,1472
2024-04-10T07:55:04.589Z,1468
2024-04-10T07:56:07.259Z,1292
2024-04-10T07:57:09.579Z,1384
2024-04-10T07:58:16.234Z,1472
2024-04-10T07:59:18.291Z,1560
2024-04-10T08:00:20.677Z,1732
2024-04-10T08:01:23.088Z,1752
2024-04-10T08:02:25.903Z,1704
2024-04-10T08:03:28.210Z,1720
2024-04-10T08:04:30.507Z,1636
2024-04-10T08:06:03.753Z,1512
2024-04-10T08:07:06.068Z,1632
2024-04-10T08:08:08.264Z,1676
2024-04-10T08:09:10.267Z,1708
2024-04-10T08:10:12.612Z,1648
2024-04-10T08:11:14.924Z,1444
2024-04-10T08:12:16.882Z,1724
2024-04-10T08:13:18.788Z,1556
2024-04-10T08:14:21.795Z,1732
2024-04-10T08:15:23.732Z,1852
2024-04-10T08:16:26.556Z,1872
2024-04-10T08:17:29.249Z,1912
2024-04-10T08:18:31.708Z,1836
2024-04-10T08:20:05.736Z,1792
2024-04-10T08:21:07.638Z,1528
2024-04-10T08:22:09.626Z,1292
2024-04-10T08:23:11.736Z,1364
2024-04-10T08:24:14.683Z,1744
2024-04-10T08:25:16.768Z,1884
2024-04-10T08:26:19.432Z,2012
2024-04-10T08:27:21.701Z,2016
2024-04-10T08:28:23.746Z,2024
2024-04-10T08:29:26.072Z,2204
2024-04-10T08:30:28.575Z,2504
2024-04-10T08:32:07.650Z,2772
2024-04-10T08:34:06.979Z,2932
2024-04-10T08:35:09.373Z,3052
2024-04-10T08:36:11.450Z,3340
2024-04-10T08:37:13.725Z,3620
2024-04-10T08:38:16.241Z,3856
2024-04-10T08:39:19.687Z,3956
2024-04-10T08:40:22.731Z,4144
2024-04-10T08:41:24.808Z,4340
2024-04-10T08:42:26.912Z,4156
2024-04-10T08:43:28.903Z,4308
2024-04-10T08:45:02.184Z,4484
2024-04-10T08:46:05.143Z,4120
2024-04-10T08:47:07.333Z,3676
2024-04-10T08:48:09.322Z,3364
2024-04-10T08:49:11.298Z,3116
2024-04-10T08:50:13.793Z,2696
2024-04-10T08:51:15.909Z,2620
2024-04-10T08:52:18.242Z,2636
2024-04-10T08:53:20.682Z,2820
2024-04-10T08:54:23.847Z,2680
2024-04-10T08:55:25.991Z,2436
2024-04-10T08:56:28.246Z,2652
2024-04-10T08:57:31.034Z,2944
2024-04-10T08:59:04.786Z,2892
2024-04-10T09:00:07.290Z,2848
2024-04-10T09:01:10.099Z,2820
2024-04-10T09:02:12.382Z,2800
2024-04-10T09:03:15.279Z,2808
2024-04-10T09:04:17.974Z,2832
2024-04-10T09:05:20.114Z,2864
2024-04-10T09:06:22.258Z,2872
2024-04-10T09:07:24.181Z,3068
2024-04-10T09:08:26.495Z,3012
2024-04-10T09:09:29.089Z,2608
2024-04-10T09:11:02.843Z,2584
2024-04-10T09:12:05.229Z,2444
2024-04-10T09:13:07.834Z,2268
2024-04-10T09:14:09.701Z,2456
2024-04-10T09:15:12.807Z,2316
2024-04-10T09:16:14.898Z,2492
2024-04-10T09:17:16.915Z,2400
2024-04-10T09:18:18.787Z,2324
2024-04-10T09:19:21.295Z,2228
2024-04-10T09:20:24.190Z,2372
2024-04-10T09:21:26.557Z,2264
2024-04-10T09:22:28.896Z,2340
2024-04-10T09:24:02.711Z,2380
2024-04-10T09:25:04.352Z,2480
2024-04-10T09:26:06.414Z,2636
2024-04-10T09:27:08.422Z,2656
2024-04-10T09:28:10.351Z,2784
2024-04-10T09:29:13.307Z,2912
2024-04-10T09:30:15.615Z,2932
2024-04-10T09:31:17.670Z,2948
2024-04-10T09:32:19.861Z,2972
2024-04-10T09:33:21.829Z,3052
2024-04-10T09:34:24.195Z,3248
2024-04-10T09:35:25.782Z,3344
2024-04-10T09:36:27.872Z,3516
2024-04-10T09:37:29.843Z,3792
2024-04-10T09:39:03.010Z,3852
2024-04-10T09:40:05.013Z,3888
2024-04-10T09:41:07.664Z,3916
2024-04-10T09:42:10.196Z,3876
2024-04-10T09:43:12.165Z,3928
2024-04-10T09:44:15.283Z,4072
2024-04-10T09:45:17.152Z,4236
2024-04-10T09:46:19.156Z,4360
2024-04-10T09:47:21.238Z,4464
2024-04-10T09:48:23.428Z,4492
2024-04-10T09:49:25.388Z,4512
2024-04-10T09:50:27.409Z,4512
2024-04-10T09:51:30.368Z,4740
2024-04-10T09:53:03.685Z,4728
2024-04-10T09:54:05.718Z,4812
2024-04-10T09:55:07.296Z,4916
2024-04-10T09:56:09.592Z,4896
2024-04-10T09:57:11.979Z,4968
2024-04-10T09:58:14.652Z,5000
2024-04-10T09:59:16.770Z,4964
2024-04-10T10:00:18.841Z,4940
2024-04-10T10:01:21.889Z,4920
2024-04-10T10:02:22.800Z,4964
2024-04-10T10:03:24.345Z,5080
2024-04-10T10:04:25.644Z,5132
2024-04-10T10:05:30.918Z,5064
2024-04-10T10:06:29.604Z,4760
2024-04-10T10:08:04.294Z,4664
2024-04-10T10:09:07.633Z,4464
2024-04-10T10:10:10.293Z,4220
2024-04-10T10:11:13.199Z,4312
2024-04-10T10:12:14.757Z,4188
2024-04-10T10:13:16.875Z,4288
2024-04-10T10:14:19.346Z,4368
2024-04-10T10:15:21.603Z,4688
2024-04-10T10:16:23.792Z,5052
2024-04-10T10:17:25.221Z,5268
2024-04-10T10:18:33.530Z,5388
2024-04-10T10:19:30.697Z,5420
2024-04-10T10:21:04.780Z,4984
2024-04-10T10:22:09.342Z,4600
2024-04-10T10:23:12.295Z,4252
2024-04-10T10:24:11.427Z,4032
2024-04-10T10:25:12.576Z,4080
2024-04-10T10:26:15.161Z,4192
2024-04-10T10:27:17.432Z,4580
2024-04-10T10:28:20.168Z,4960
2024-04-10T10:29:21.684Z,5384
2024-04-10T10:30:23.730Z,5624
2024-04-10T10:31:25.931Z,5896
2024-04-10T10:32:27.996Z,6072
2024-04-10T10:33:30.564Z,6048
2024-04-10T10:35:03.772Z,6132
2024-04-10T10:36:08.311Z,6068
2024-04-10T10:37:10.375Z,5740
2024-04-10T10:38:12.278Z,5688
2024-04-10T10:39:14.183Z,5852
2024-04-10T10:40:16.230Z,5964
2024-04-10T10:41:19.432Z,6092
2024-04-10T10:42:20.848Z,5876
2024-04-10T10:43:22.434Z,5388
2024-04-10T10:44:24.458Z,4972
2024-04-10T10:45:28.147Z,4832
2024-04-10T10:47:02.823Z,4860
2024-04-10T10:48:05.741Z,4716
2024-04-10T10:49:07.313Z,4536
2024-04-10T10:50:08.795Z,4644
2024-04-10T10:51:11.498Z,4788
2024-04-10T10:52:13.632Z,5112
2024-04-10T10:53:16.929Z,5676
2024-04-10T10:54:19.319Z,6000
2024-04-10T10:55:22.168Z,6200
2024-04-10T10:56:24.350Z,6144
2024-04-10T10:57:27.207Z,5760
2024-04-10T10:58:29.188Z,5088
2024-04-10T11:00:01.312Z,5124
2024-04-10T11:01:03.721Z,5248
2024-04-10T11:02:06.342Z,5436
2024-04-10T11:03:16.542Z,5236
2024-04-10T11:04:13.052Z,5424
2024-04-10T11:05:14.528Z,5616
2024-04-10T11:06:16.785Z,5732
2024-04-10T11:07:18.575Z,5124
2024-04-10T11:08:20.686Z,4340
2024-04-10T11:09:22.727Z,4748
2024-04-10T11:10:25.829Z,6004
2024-04-10T11:11:28.612Z,5392
2024-04-10T11:13:01.309Z,5100
2024-04-10T11:14:03.346Z,4060
2024-04-10T11:15:05.745Z,3500
2024-04-10T11:16:09.191Z,3128
2024-04-10T11:17:11.906Z,2960
2024-04-10T11:18:13.877Z,3092
2024-04-10T11:19:15.645Z,2848
2024-04-10T11:20:17.823Z,2712
2024-04-10T11:21:20.652Z,2844
2024-04-10T11:22:24.340Z,3320
2024-04-10T11:23:26.488Z,3784
2024-04-10T11:24:28.412Z,3328
2024-04-10T11:26:01.939Z,3244
2024-04-10T11:27:04.214Z,3408
2024-04-10T11:28:06.368Z,3836
2024-04-10T11:29:10.297Z,3880
2024-04-10T11:30:10.709Z,3972
2024-04-10T11:31:12.774Z,4156
2024-04-10T11:32:14.798Z,4440
2024-04-10T11:33:17.018Z,4272
2024-04-10T11:34:19.389Z,3320
2024-04-10T11:35:21.300Z,2508
2024-04-10T11:36:23.711Z,2104
2024-04-10T11:37:25.956Z,1860
2024-04-10T11:38:29.045Z,1684
2024-04-10T11:40:04.715Z,1876
2024-04-10T11:41:07.417Z,2404
2024-04-10T11:42:09.685Z,2636
2024-04-10T11:43:12.389Z,2880
2024-04-10T11:44:15.363Z,3308
2024-04-10T11:45:17.052Z,3592
2024-04-10T11:46:19.726Z,3980
2024-04-10T11:47:22.882Z,4496
2024-04-10T11:48:25.057Z,5144
2024-04-10T11:49:26.682Z,5120
2024-04-10T11:50:30.266Z,5264
2024-04-10T11:52:04.075Z,5232
2024-04-10T11:53:07.098Z,6216
2024-04-10T11:54:09.042Z,5708
2024-04-10T11:55:11.413Z,5260
2024-04-10T11:56:13.819Z,4944
2024-04-10T11:57:15.466Z,4552
2024-04-10T11:58:20.604Z,4020
2024-04-10T11:59:25.416Z,3544
2024-04-10T12:00:28.888Z,2816
2024-04-10T12:02:02.874Z,2596
2024-04-10T12:03:05.708Z,2460
2024-04-10T12:04:07.970Z,2300
2024-04-10T12:05:10.532Z,2148
2024-04-10T12:06:12.706Z,2000
2024-04-10T12:07:15.306Z,1884
2024-04-10T12:08:17.380Z,1976
2024-04-10T12:09:19.740Z,2088
2024-04-10T12:10:22.148Z,2316
2024-04-10T12:11:24.266Z,2644
2024-04-10T12:12:26.740Z,3168
2024-04-10T12:13:28.314Z,3764
2024-04-10T12:15:02.342Z,3956
2024-04-10T12:16:04.695Z,4032
2024-04-10T12:17:09.774Z,4020
2024-04-10T12:18:12.902Z,4304
2024-04-10T12:19:15.272Z,4744
2024-04-10T12:20:18.757Z,5448
2024-04-10T12:21:20.662Z,5836
2024-04-10T12:22:22.721Z,6280
2024-04-10T12:23:24.791Z,6428
2024-04-10T12:24:26.946Z,6716
2024-04-10T12:25:29.357Z,6172
2024-04-10T12:27:02.855Z,5700
2024-04-10T12:28:04.478Z,5624
2024-04-10T12:29:06.112Z,5668
2024-04-10T12:30:08.834Z,5472
2024-04-10T12:31:11.729Z,6544
2024-04-10T12:32:14.479Z,6848
2024-04-10T12:33:17.175Z,6144
2024-04-10T12:34:19.820Z,6096
2024-04-10T12:35:21.686Z,5800
2024-04-10T12:36:24.389Z,6120
2024-04-10T12:37:27.132Z,5408
2024-04-10T12:38:29.758Z,5900
2024-04-10T12:40:03.500Z,5232
2024-04-10T12:41:05.762Z,4840
2024-04-10T12:42:08.266Z,4748
2024-04-10T12:43:10.812Z,5736
2024-04-10T12:44:13.237Z,5016
2024-04-10T12:45:15.333Z,3652
2024-04-10T12:46:17.275Z,2768
2024-04-10T12:47:19.729Z,2228
2024-04-10T12:48:22.006Z,2056
2024-04-10T12:49:24.322Z,1956
2024-04-10T12:50:26.670Z,2552
2024-04-10T12:51:29.741Z,3408
2024-04-10T12:53:02.405Z,2648
2024-04-10T12:54:05.249Z,2372
2024-04-10T12:55:07.278Z,2612
2024-04-10T12:56:09.925Z,3388
2024-04-10T12:57:12.182Z,6520
2024-04-10T12:58:14.158Z,8156
2024-04-10T12:59:16.223Z,9668
2024-04-10T13:00:18.259Z,9888
2024-04-10T13:01:20.748Z,7440
2024-04-10T13:02:22.865Z,5872
2024-04-10T13:03:25.727Z,4780
2024-04-10T13:04:27.396Z,3660
2024-04-10T13:06:01.739Z,3452
2024-04-10T13:07:03.503Z,3436
2024-04-10T13:08:05.760Z,3380
2024-04-10T13:09:07.699Z,3392
2024-04-10T13:10:09.764Z,3492
2024-04-10T13:11:12.328Z,3640
2024-04-10T13:12:13.916Z,3820
2024-04-10T13:13:23.927Z,4056
2024-04-10T13:14:18.260Z,4388
2024-04-10T13:15:20.360Z,4720
2024-04-10T13:16:22.244Z,4892
2024-04-10T13:17:23.626Z,5284
2024-04-10T13:18:25.942Z,5516
2024-04-10T13:19:28.217Z,5928
2024-04-10T13:21:00.823Z,6432
2024-04-10T13:22:02.682Z,7436
2024-04-10T13:23:04.728Z,8708
2024-04-10T13:24:06.125Z,12664
2024-04-10T13:25:09.336Z,19072
2024-04-10T13:26:11.644Z,15892
2024-04-10T13:27:13.900Z,35872
2024-04-10T13:28:15.731Z,23168
2024-04-10T13:29:18.361Z,13164
2024-04-10T13:30:20.786Z,20960
2024-04-10T13:31:22.620Z,10948
2024-04-10T13:32:27.452Z,10068
2024-04-10T13:33:27.382Z,10296
2024-04-10T13:35:00.711Z,16020
2024-04-10T13:36:02.769Z,9496
2024-04-10T13:37:05.304Z,7876
2024-04-10T13:38:07.903Z,7064
2024-04-10T13:39:10.545Z,6972
2024-04-10T13:40:15.113Z,7040
2024-04-10T13:41:18.674Z,6996
2024-04-10T13:42:22.480Z,5680
2024-04-10T13:43:25.963Z,4860
2024-04-10T13:44:28.796Z,3992
2024-04-10T13:46:04.088Z,3552
2024-04-10T13:47:07.342Z,3344
2024-04-10T13:48:09.892Z,3292
2024-04-10T13:49:12.360Z,3280
2024-04-10T13:50:15.396Z,3256
2024-04-10T13:51:17.823Z,3324
2024-04-10T13:52:19.831Z,3728
2024-04-10T13:53:21.767Z,4168
2024-04-10T13:54:23.282Z,4828
2024-04-10T13:55:25.939Z,5488
2024-04-10T13:56:28.885Z,6076
2024-04-10T13:58:02.205Z,5556
2024-04-10T13:59:04.163Z,5092
2024-04-10T14:00:06.254Z,4180
2024-04-10T14:01:08.308Z,3416
2024-04-10T14:02:10.844Z,2856
2024-04-10T14:03:14.174Z,2528
2024-04-10T14:04:15.299Z,2132
2024-04-10T14:05:17.500Z,1772
2024-04-10T14:06:19.340Z,1608
2024-04-10T14:07:21.286Z,1636
2024-04-10T14:08:23.299Z,1640
2024-04-10T14:09:24.700Z,1712
2024-04-10T14:10:26.112Z,2124
2024-04-10T14:11:59.447Z,3264
2024-04-10T14:13:02.704Z,4516
2024-04-10T14:14:04.871Z,5616
2024-04-10T14:15:06.853Z,6596
2024-04-10T14:16:08.756Z,10928
2024-04-10T14:17:15.826Z,36064
2024-04-10T14:18:13.313Z,12632
2024-04-10T14:19:15.663Z,48640
2024-04-10T14:20:17.732Z,5540
2024-04-10T14:21:19.775Z,4608
2024-04-10T14:22:21.795Z,3744
2024-04-10T14:23:25.262Z,2840
2024-04-10T14:24:27.306Z,3648
2024-04-10T14:25:59.783Z,4692
2024-04-10T14:27:02.720Z,3368
2024-04-10T14:28:04.847Z,3932
2024-04-10T14:29:07.972Z,4084
2024-04-10T14:30:10.875Z,3072
2024-04-10T14:31:13.196Z,2932
2024-04-10T14:32:15.329Z,3860
2024-04-10T14:33:17.542Z,7800
2024-04-10T14:34:20.037Z,59776
2024-04-10T14:35:22.232Z,61888
2024-04-10T14:36:23.571Z,26656
2024-04-10T14:37:25.842Z,50144
2024-04-10T14:39:00.312Z,66048
2024-04-10T14:40:02.242Z,18816
2024-04-10T14:41:04.394Z,18048
2024-04-10T14:42:06.324Z,23872
2024-04-10T14:43:08.279Z,11652
2024-04-10T14:44:10.704Z,8604
2024-04-10T14:45:13.104Z,6572
2024-04-10T14:46:18.268Z,4780
2024-04-10T14:47:17.191Z,4308
2024-04-10T14:48:18.652Z,2636
2024-04-10T14:49:20.450Z,1812
2024-04-10T14:50:23.378Z,1488
2024-04-10T14:51:28.362Z,1176
2024-04-10T14:53:06.112Z,1468
2024-04-10T14:55:06.840Z,2272
2024-04-10T14:56:08.837Z,3476
2024-04-10T14:57:11.120Z,3088